sensor_id;sensor_type;location;lat;lon;timestamp;P1;durP1;ratioP1;P2;durP2;ratioP2
75926;SDS011;64605;48.296;16.416;2023-02-15T00:01:29;39.83;;;26.23;;
75926;SDS011;64605;48.296;16.416;2023-02-15T00:03:55;42.28;;;26.92;;
75926;SDS011;64605;48.296;16.416;2023-02-15T00:06:21;41.53;;;26.88;;
75926;SDS011;64605;48.296;16.416;2023-02-15T00:08:47;37.42;;;25.10;;
75926;SDS011;64605;48.296;16.416;2023-02-15T00:11:13;42.67;;;26.88;;
75926;SDS011;64605;48.296;16.416;2023-02-15T00:13:41;38.00;;;25.70;;
75926;SDS011;64605;48.296;16.416;2023-02-15T00:16:08;40.38;;;26.55;;
75926;SDS011;64605;48.296;16.416;2023-02-15T00:18:35;46.10;;;27.58;;
75926;SDS011;64605;48.296;16.416;2023-02-15T00:21:08;39.03;;;26.00;;
75926;SDS011;64605;48.296;16.416;2023-02-15T00:23:35;41.05;;;25.02;;
75926;SDS011;64605;48.296;16.416;2023-02-15T00:26:05;37.28;;;23.95;;
75926;SDS011;64605;48.296;16.416;2023-02-15T00:28:35;36.05;;;24.23;;
75926;SDS011;64605;48.296;16.416;2023-02-15T00:31:05;39.70;;;24.65;;
75926;SDS011;64605;48.296;16.416;2023-02-15T00:33:31;37.78;;;24.95;;
75926;SDS011;64605;48.296;16.416;2023-02-15T00:35:57;39.88;;;25.63;;
75926;SDS011;64605;48.296;16.416;2023-02-15T00:38:24;39.08;;;25.05;;
75926;SDS011;64605;48.296;16.416;2023-02-15T00:40:55;39.88;;;25.25;;
75926;SDS011;64605;48.296;16.416;2023-02-15T00:43:22;41.22;;;25.23;;
75926;SDS011;64605;48.296;16.416;2023-02-15T00:45:48;38.22;;;24.45;;
75926;SDS011;64605;48.296;16.416;2023-02-15T00:48:14;38.92;;;25.75;;
75926;SDS011;64605;48.296;16.416;2023-02-15T00:50:40;38.97;;;24.88;;
75926;SDS011;64605;48.296;16.416;2023-02-15T00:53:06;38.40;;;25.08;;
75926;SDS011;64605;48.296;16.416;2023-02-15T00:55:31;38.60;;;24.55;;
75926;SDS011;64605;48.296;16.416;2023-02-15T00:57:57;37.92;;;24.75;;
75926;SDS011;64605;48.296;16.416;2023-02-15T01:00:23;43.97;;;24.42;;
75926;SDS011;64605;48.296;16.416;2023-02-15T01:02:48;34.53;;;23.77;;
75926;SDS011;64605;48.296;16.416;2023-02-15T01:05:14;37.72;;;24.85;;
75926;SDS011;64605;48.296;16.416;2023-02-15T01:07:39;39.88;;;25.02;;
75926;SDS011;64605;48.296;16.416;2023-02-15T01:10:06;40.95;;;24.73;;
75926;SDS011;64605;48.296;16.416;2023-02-15T01:12:32;38.08;;;23.77;;
75926;SDS011;64605;48.296;16.416;2023-02-15T01:14:58;38.55;;;24.08;;
75926;SDS011;64605;48.296;16.416;2023-02-15T01:17:24;39.05;;;23.17;;
75926;SDS011;64605;48.296;16.416;2023-02-15T01:19:50;36.05;;;23.23;;
75926;SDS011;64605;48.296;16.416;2023-02-15T01:22:16;34.95;;;23.30;;
75926;SDS011;64605;48.296;16.416;2023-02-15T01:24:43;35.38;;;23.15;;
75926;SDS011;64605;48.296;16.416;2023-02-15T01:27:09;40.35;;;23.60;;
75926;SDS011;64605;48.296;16.416;2023-02-15T01:29:34;40.60;;;23.98;;
75926;SDS011;64605;48.296;16.416;2023-02-15T01:32:00;33.65;;;22.40;;
75926;SDS011;64605;48.296;16.416;2023-02-15T01:34:26;33.70;;;22.33;;
75926;SDS011;64605;48.296;16.416;2023-02-15T01:36:51;37.10;;;23.05;;
75926;SDS011;64605;48.296;16.416;2023-02-15T01:39:17;38.53;;;24.23;;
75926;SDS011;64605;48.296;16.416;2023-02-15T01:41:42;40.50;;;24.13;;
75926;SDS011;64605;48.296;16.416;2023-02-15T01:47:08;38.95;;;23.42;;
75926;SDS011;64605;48.296;16.416;2023-02-15T01:49:38;38.00;;;23.67;;
75926;SDS011;64605;48.296;16.416;2023-02-15T01:52:08;35.70;;;22.73;;
75926;SDS011;64605;48.296;16.416;2023-02-15T01:54:37;31.38;;;20.38;;
75926;SDS011;64605;48.296;16.416;2023-02-15T01:57:07;34.03;;;20.02;;
75926;SDS011;64605;48.296;16.416;2023-02-15T01:59:37;30.48;;;20.30;;
75926;SDS011;64605;48.296;16.416;2023-02-15T02:02:04;31.88;;;20.98;;
75926;SDS011;64605;48.296;16.416;2023-02-15T02:07:05;32.72;;;21.05;;
75926;SDS011;64605;48.296;16.416;2023-02-15T02:09:32;35.15;;;21.98;;
75926;SDS011;64605;48.296;16.416;2023-02-15T02:11:57;32.83;;;20.95;;
75926;SDS011;64605;48.296;16.416;2023-02-15T02:14:23;35.42;;;22.00;;
75926;SDS011;64605;48.296;16.416;2023-02-15T02:16:52;34.95;;;22.60;;
75926;SDS011;64605;48.296;16.416;2023-02-15T02:19:25;34.20;;;21.05;;
75926;SDS011;64605;48.296;16.416;2023-02-15T02:27:21;35.35;;;22.00;;
75926;SDS011;64605;48.296;16.416;2023-02-15T02:30:12;39.15;;;22.75;;
75926;SDS011;64605;48.296;16.416;2023-02-15T02:33:09;32.95;;;21.58;;
75926;SDS011;64605;48.296;16.416;2023-02-15T02:36:18;35.63;;;21.98;;
75926;SDS011;64605;48.296;16.416;2023-02-15T02:42:21;37.30;;;22.92;;
75926;SDS011;64605;48.296;16.416;2023-02-15T02:44:42;31.75;;;20.63;;
75926;SDS011;64605;48.296;16.416;2023-02-15T02:47:14;35.47;;;22.40;;
75926;SDS011;64605;48.296;16.416;2023-02-15T02:50:02;35.08;;;21.75;;
75926;SDS011;64605;48.296;16.416;2023-02-15T02:57:43;34.00;;;22.00;;
75926;SDS011;64605;48.296;16.416;2023-02-15T03:00:26;34.95;;;22.25;;
75926;SDS011;64605;48.296;16.416;2023-02-15T03:02:59;34.33;;;21.45;;
75926;SDS011;64605;48.296;16.416;2023-02-15T03:05:30;37.25;;;22.85;;
75926;SDS011;64605;48.296;16.416;2023-02-15T03:07:57;34.40;;;21.63;;
75926;SDS011;64605;48.296;16.416;2023-02-15T03:10:26;34.10;;;21.73;;
75926;SDS011;64605;48.296;16.416;2023-02-15T03:12:54;34.67;;;21.52;;
75926;SDS011;64605;48.296;16.416;2023-02-15T03:15:25;33.75;;;21.67;;
75926;SDS011;64605;48.296;16.416;2023-02-15T03:18:15;32.20;;;21.52;;
75926;SDS011;64605;48.296;16.416;2023-02-15T03:20:45;34.42;;;21.67;;
75926;SDS011;64605;48.296;16.416;2023-02-15T03:23:13;33.50;;;22.73;;
75926;SDS011;64605;48.296;16.416;2023-02-15T03:25:45;37.63;;;22.63;;
75926;SDS011;64605;48.296;16.416;2023-02-15T03:28:17;34.70;;;22.38;;
75926;SDS011;64605;48.296;16.416;2023-02-15T03:30:47;32.22;;;21.23;;
75926;SDS011;64605;48.296;16.416;2023-02-15T03:33:16;34.15;;;22.27;;
75926;SDS011;64605;48.296;16.416;2023-02-15T03:35:45;35.88;;;22.58;;
75926;SDS011;64605;48.296;16.416;2023-02-15T03:38:20;33.85;;;21.38;;
75926;SDS011;64605;48.296;16.416;2023-02-15T03:40:53;31.35;;;20.48;;
75926;SDS011;64605;48.296;16.416;2023-02-15T03:46:22;30.95;;;19.85;;
75926;SDS011;64605;48.296;16.416;2023-02-15T03:49:24;32.97;;;22.30;;
75926;SDS011;64605;48.296;16.416;2023-02-15T03:51:42;33.60;;;20.63;;
75926;SDS011;64605;48.296;16.416;2023-02-15T03:54:14;33.47;;;21.08;;
75926;SDS011;64605;48.296;16.416;2023-02-15T03:57:03;35.17;;;20.77;;
75926;SDS011;64605;48.296;16.416;2023-02-15T03:59:48;31.73;;;20.52;;
75926;SDS011;64605;48.296;16.416;2023-02-15T04:02:38;29.63;;;20.20;;
75926;SDS011;64605;48.296;16.416;2023-02-15T04:05:11;33.47;;;20.73;;
75926;SDS011;64605;48.296;16.416;2023-02-15T04:07:36;30.38;;;18.27;;
75926;SDS011;64605;48.296;16.416;2023-02-15T04:10:02;32.55;;;20.30;;
75926;SDS011;64605;48.296;16.416;2023-02-15T04:12:46;34.08;;;21.40;;
75926;SDS011;64605;48.296;16.416;2023-02-15T04:15:12;33.47;;;21.60;;
75926;SDS011;64605;48.296;16.416;2023-02-15T04:17:56;31.98;;;19.83;;
75926;SDS011;64605;48.296;16.416;2023-02-15T04:20:22;33.03;;;20.52;;
75926;SDS011;64605;48.296;16.416;2023-02-15T04:23:07;33.78;;;21.13;;
75926;SDS011;64605;48.296;16.416;2023-02-15T04:25:51;34.30;;;21.67;;
75926;SDS011;64605;48.296;16.416;2023-02-15T04:28:17;37.22;;;22.40;;
75926;SDS011;64605;48.296;16.416;2023-02-15T04:30:42;32.80;;;21.40;;
75926;SDS011;64605;48.296;16.416;2023-02-15T04:33:08;32.70;;;22.65;;
75926;SDS011;64605;48.296;16.416;2023-02-15T04:35:34;37.70;;;23.25;;
75926;SDS011;64605;48.296;16.416;2023-02-15T04:37:59;30.98;;;20.73;;
75926;SDS011;64605;48.296;16.416;2023-02-15T04:40:25;34.95;;;20.85;;
75926;SDS011;64605;48.296;16.416;2023-02-15T04:42:50;34.38;;;21.92;;
75926;SDS011;64605;48.296;16.416;2023-02-15T04:45:16;34.30;;;21.35;;
75926;SDS011;64605;48.296;16.416;2023-02-15T04:47:42;27.90;;;18.83;;
75926;SDS011;64605;48.296;16.416;2023-02-15T04:50:08;26.60;;;18.20;;
75926;SDS011;64605;48.296;16.416;2023-02-15T04:52:34;27.83;;;18.52;;
75926;SDS011;64605;48.296;16.416;2023-02-15T04:55:01;29.88;;;18.77;;
75926;SDS011;64605;48.296;16.416;2023-02-15T04:57:26;28.75;;;18.58;;
75926;SDS011;64605;48.296;16.416;2023-02-15T04:59:52;27.52;;;18.85;;
75926;SDS011;64605;48.296;16.416;2023-02-15T05:02:17;33.15;;;20.80;;
75926;SDS011;64605;48.296;16.416;2023-02-15T05:04:43;27.45;;;19.05;;
75926;SDS011;64605;48.296;16.416;2023-02-15T05:07:09;31.92;;;20.08;;
75926;SDS011;64605;48.296;16.416;2023-02-15T05:09:34;30.45;;;19.73;;
75926;SDS011;64605;48.296;16.416;2023-02-15T05:12:00;31.90;;;20.92;;
75926;SDS011;64605;48.296;16.416;2023-02-15T05:14:25;34.85;;;22.20;;
75926;SDS011;64605;48.296;16.416;2023-02-15T05:16:51;33.05;;;20.65;;
75926;SDS011;64605;48.296;16.416;2023-02-15T05:19:18;27.85;;;19.45;;
75926;SDS011;64605;48.296;16.416;2023-02-15T05:21:44;32.75;;;20.52;;
75926;SDS011;64605;48.296;16.416;2023-02-15T05:24:10;33.83;;;20.88;;
75926;SDS011;64605;48.296;16.416;2023-02-15T05:26:54;27.10;;;18.77;;
75926;SDS011;64605;48.296;16.416;2023-02-15T05:29:38;28.88;;;18.65;;
75926;SDS011;64605;48.296;16.416;2023-02-15T05:32:04;31.13;;;20.63;;
75926;SDS011;64605;48.296;16.416;2023-02-15T05:34:30;28.80;;;19.08;;
75926;SDS011;64605;48.296;16.416;2023-02-15T05:36:55;32.45;;;20.73;;
75926;SDS011;64605;48.296;16.416;2023-02-15T05:39:21;32.38;;;20.38;;
75926;SDS011;64605;48.296;16.416;2023-02-15T05:41:46;30.65;;;20.02;;
75926;SDS011;64605;48.296;16.416;2023-02-15T05:44:12;32.25;;;21.02;;
75926;SDS011;64605;48.296;16.416;2023-02-15T05:46:37;33.53;;;21.35;;
75926;SDS011;64605;48.296;16.416;2023-02-15T05:49:03;28.42;;;19.10;;
75926;SDS011;64605;48.296;16.416;2023-02-15T05:51:29;29.55;;;19.58;;
75926;SDS011;64605;48.296;16.416;2023-02-15T05:53:54;34.30;;;20.50;;
75926;SDS011;64605;48.296;16.416;2023-02-15T05:56:20;31.40;;;19.75;;
75926;SDS011;64605;48.296;16.416;2023-02-15T05:58:46;30.92;;;19.15;;
75926;SDS011;64605;48.296;16.416;2023-02-15T06:01:13;28.52;;;18.48;;
75926;SDS011;64605;48.296;16.416;2023-02-15T06:03:42;30.45;;;18.85;;
75926;SDS011;64605;48.296;16.416;2023-02-15T06:06:08;32.67;;;19.90;;
75926;SDS011;64605;48.296;16.416;2023-02-15T06:08:34;29.50;;;19.73;;
75926;SDS011;64605;48.296;16.416;2023-02-15T06:11:01;29.88;;;18.83;;
75926;SDS011;64605;48.296;16.416;2023-02-15T06:13:27;30.60;;;20.55;;
75926;SDS011;64605;48.296;16.416;2023-02-15T06:15:52;31.15;;;19.95;;
75926;SDS011;64605;48.296;16.416;2023-02-15T06:18:18;31.15;;;20.65;;
75926;SDS011;64605;48.296;16.416;2023-02-15T06:20:47;31.25;;;20.73;;
75926;SDS011;64605;48.296;16.416;2023-02-15T06:23:13;27.13;;;19.23;;
75926;SDS011;64605;48.296;16.416;2023-02-15T06:25:39;34.00;;;21.75;;
75926;SDS011;64605;48.296;16.416;2023-02-15T06:28:04;30.95;;;19.85;;
75926;SDS011;64605;48.296;16.416;2023-02-15T06:30:30;28.42;;;19.05;;
75926;SDS011;64605;48.296;16.416;2023-02-15T06:32:56;33.45;;;21.55;;
75926;SDS011;64605;48.296;16.416;2023-02-15T06:35:22;31.40;;;20.90;;
75926;SDS011;64605;48.296;16.416;2023-02-15T06:37:47;31.63;;;21.05;;
75926;SDS011;64605;48.296;16.416;2023-02-15T06:40:13;33.75;;;21.67;;
75926;SDS011;64605;48.296;16.416;2023-02-15T06:42:39;31.45;;;20.30;;
75926;SDS011;64605;48.296;16.416;2023-02-15T06:45:05;36.20;;;22.42;;
75926;SDS011;64605;48.296;16.416;2023-02-15T06:47:31;31.23;;;21.00;;
75926;SDS011;64605;48.296;16.416;2023-02-15T06:49:57;33.22;;;20.35;;
75926;SDS011;64605;48.296;16.416;2023-02-15T06:52:23;30.60;;;20.00;;
75926;SDS011;64605;48.296;16.416;2023-02-15T06:54:48;28.08;;;19.55;;
75926;SDS011;64605;48.296;16.416;2023-02-15T06:57:14;36.70;;;21.20;;
75926;SDS011;64605;48.296;16.416;2023-02-15T06:59:40;32.80;;;20.88;;
75926;SDS011;64605;48.296;16.416;2023-02-15T07:02:06;32.05;;;20.38;;
75926;SDS011;64605;48.296;16.416;2023-02-15T07:04:33;31.45;;;20.02;;
75926;SDS011;64605;48.296;16.416;2023-02-15T07:06:58;31.30;;;20.48;;
75926;SDS011;64605;48.296;16.416;2023-02-15T07:09:24;29.17;;;20.02;;
75926;SDS011;64605;48.296;16.416;2023-02-15T07:11:50;28.77;;;18.75;;
75926;SDS011;64605;48.296;16.416;2023-02-15T07:14:34;31.30;;;21.35;;
75926;SDS011;64605;48.296;16.416;2023-02-15T07:16:59;28.95;;;19.70;;
75926;SDS011;64605;48.296;16.416;2023-02-15T07:19:25;31.35;;;20.55;;
75926;SDS011;64605;48.296;16.416;2023-02-15T07:21:51;35.20;;;22.00;;
75926;SDS011;64605;48.296;16.416;2023-02-15T07:24:16;34.42;;;22.20;;
75926;SDS011;64605;48.296;16.416;2023-02-15T07:26:42;32.85;;;21.40;;
75926;SDS011;64605;48.296;16.416;2023-02-15T07:29:08;35.60;;;23.17;;
75926;SDS011;64605;48.296;16.416;2023-02-15T07:31:33;31.33;;;21.85;;
75926;SDS011;64605;48.296;16.416;2023-02-15T07:33:59;33.35;;;21.77;;
75926;SDS011;64605;48.296;16.416;2023-02-15T07:36:25;32.42;;;21.60;;
75926;SDS011;64605;48.296;16.416;2023-02-15T07:38:51;32.97;;;21.30;;
75926;SDS011;64605;48.296;16.416;2023-02-15T07:41:16;32.63;;;21.63;;
75926;SDS011;64605;48.296;16.416;2023-02-15T07:43:43;31.85;;;21.02;;
75926;SDS011;64605;48.296;16.416;2023-02-15T07:46:10;33.00;;;21.40;;
75926;SDS011;64605;48.296;16.416;2023-02-15T07:48:38;32.05;;;21.27;;
75926;SDS011;64605;48.296;16.416;2023-02-15T07:51:05;36.50;;;23.13;;
75926;SDS011;64605;48.296;16.416;2023-02-15T07:53:33;39.30;;;24.08;;
75926;SDS011;64605;48.296;16.416;2023-02-15T07:56:04;35.78;;;23.75;;
75926;SDS011;64605;48.296;16.416;2023-02-15T07:58:32;37.17;;;23.30;;
75926;SDS011;64605;48.296;16.416;2023-02-15T08:01:20;35.50;;;22.67;;
75926;SDS011;64605;48.296;16.416;2023-02-15T08:03:48;39.83;;;23.92;;
75926;SDS011;64605;48.296;16.416;2023-02-15T08:06:14;49.25;;;29.60;;
75926;SDS011;64605;48.296;16.416;2023-02-15T08:08:40;38.83;;;24.08;;
75926;SDS011;64605;48.296;16.416;2023-02-15T08:14:06;42.63;;;25.83;;
75926;SDS011;64605;48.296;16.416;2023-02-15T08:16:35;37.58;;;24.25;;
75926;SDS011;64605;48.296;16.416;2023-02-15T08:19:10;39.40;;;24.65;;
75926;SDS011;64605;48.296;16.416;2023-02-15T08:21:44;38.97;;;24.40;;
75926;SDS011;64605;48.296;16.416;2023-02-15T08:24:12;40.05;;;26.77;;
75926;SDS011;64605;48.296;16.416;2023-02-15T08:26:40;39.35;;;25.42;;
75926;SDS011;64605;48.296;16.416;2023-02-15T08:29:06;40.03;;;27.13;;
75926;SDS011;64605;48.296;16.416;2023-02-15T08:31:33;40.33;;;26.60;;
75926;SDS011;64605;48.296;16.416;2023-02-15T08:34:00;41.58;;;27.42;;
75926;SDS011;64605;48.296;16.416;2023-02-15T08:36:26;41.88;;;26.98;;
75926;SDS011;64605;48.296;16.416;2023-02-15T08:38:54;43.67;;;27.77;;
75926;SDS011;64605;48.296;16.416;2023-02-15T08:41:23;45.58;;;28.45;;
75926;SDS011;64605;48.296;16.416;2023-02-15T08:43:54;45.67;;;29.33;;
75926;SDS011;64605;48.296;16.416;2023-02-15T08:46:22;45.55;;;29.52;;
75926;SDS011;64605;48.296;16.416;2023-02-15T08:48:49;46.58;;;29.10;;
75926;SDS011;64605;48.296;16.416;2023-02-15T08:51:16;43.85;;;28.15;;
75926;SDS011;64605;48.296;16.416;2023-02-15T08:53:47;46.90;;;28.98;;
75926;SDS011;64605;48.296;16.416;2023-02-15T08:56:15;41.40;;;27.20;;
75926;SDS011;64605;48.296;16.416;2023-02-15T08:58:41;41.65;;;27.83;;
75926;SDS011;64605;48.296;16.416;2023-02-15T09:01:08;43.42;;;28.50;;
75926;SDS011;64605;48.296;16.416;2023-02-15T09:03:43;39.05;;;27.52;;
75926;SDS011;64605;48.296;16.416;2023-02-15T09:06:10;43.75;;;26.33;;
75926;SDS011;64605;48.296;16.416;2023-02-15T09:08:36;42.20;;;27.63;;
75926;SDS011;64605;48.296;16.416;2023-02-15T09:11:06;39.67;;;27.38;;
75926;SDS011;64605;48.296;16.416;2023-02-15T09:13:33;44.28;;;26.92;;
75926;SDS011;64605;48.296;16.416;2023-02-15T09:16:00;45.88;;;28.85;;
75926;SDS011;64605;48.296;16.416;2023-02-15T09:18:31;40.20;;;27.83;;
75926;SDS011;64605;48.296;16.416;2023-02-15T09:21:04;40.53;;;26.88;;
75926;SDS011;64605;48.296;16.416;2023-02-15T09:23:30;39.08;;;27.58;;
75926;SDS011;64605;48.296;16.416;2023-02-15T09:25:56;42.35;;;27.23;;
75926;SDS011;64605;48.296;16.416;2023-02-15T09:28:22;44.58;;;27.67;;
75926;SDS011;64605;48.296;16.416;2023-02-15T09:30:47;43.90;;;28.23;;
75926;SDS011;64605;48.296;16.416;2023-02-15T09:33:13;40.97;;;27.42;;
75926;SDS011;64605;48.296;16.416;2023-02-15T09:35:38;41.90;;;27.63;;
75926;SDS011;64605;48.296;16.416;2023-02-15T09:38:04;42.10;;;26.35;;
75926;SDS011;64605;48.296;16.416;2023-02-15T09:40:31;41.58;;;26.75;;
75926;SDS011;64605;48.296;16.416;2023-02-15T09:48:24;40.55;;;25.85;;
75926;SDS011;64605;48.296;16.416;2023-02-15T09:56:50;44.05;;;28.40;;
75926;SDS011;64605;48.296;16.416;2023-02-15T09:59:26;44.63;;;27.42;;
75926;SDS011;64605;48.296;16.416;2023-02-15T10:02:36;39.88;;;26.17;;
75926;SDS011;64605;48.296;16.416;2023-02-15T10:13:58;35.88;;;24.45;;
75926;SDS011;64605;48.296;16.416;2023-02-15T10:16:34;41.40;;;26.92;;
75926;SDS011;64605;48.296;16.416;2023-02-15T10:20:06;39.78;;;25.42;;
75926;SDS011;64605;48.296;16.416;2023-02-15T10:27:36;39.85;;;26.40;;
75926;SDS011;64605;48.296;16.416;2023-02-15T10:30:12;36.38;;;25.00;;
75926;SDS011;64605;48.296;16.416;2023-02-15T10:33:00;38.72;;;25.70;;
75926;SDS011;64605;48.296;16.416;2023-02-15T10:35:42;40.15;;;25.48;;
75926;SDS011;64605;48.296;16.416;2023-02-15T10:41:15;43.40;;;27.00;;
75926;SDS011;64605;48.296;16.416;2023-02-15T11:00:52;38.83;;;26.45;;
75926;SDS011;64605;48.296;16.416;2023-02-15T11:06:22;42.75;;;26.90;;
75926;SDS011;64605;48.296;16.416;2023-02-15T11:08:52;46.53;;;27.73;;
75926;SDS011;64605;48.296;16.416;2023-02-15T11:13:54;41.17;;;28.30;;
75926;SDS011;64605;48.296;16.416;2023-02-15T11:16:34;44.35;;;28.60;;
75926;SDS011;64605;48.296;16.416;2023-02-15T11:19:18;42.67;;;28.33;;
75926;SDS011;64605;48.296;16.416;2023-02-15T11:21:53;41.58;;;27.85;;
75926;SDS011;64605;48.296;16.416;2023-02-15T11:24:24;47.10;;;28.73;;
75926;SDS011;64605;48.296;16.416;2023-02-15T11:26:57;43.28;;;29.35;;
75926;SDS011;64605;48.296;16.416;2023-02-15T11:32:01;43.65;;;28.02;;
75926;SDS011;64605;48.296;16.416;2023-02-15T11:40:26;45.72;;;29.65;;
75926;SDS011;64605;48.296;16.416;2023-02-15T11:43:00;40.20;;;27.13;;
75926;SDS011;64605;48.296;16.416;2023-02-15T11:45:31;40.15;;;27.77;;
75926;SDS011;64605;48.296;16.416;2023-02-15T11:47:58;43.60;;;29.27;;
75926;SDS011;64605;48.296;16.416;2023-02-15T11:50:26;37.42;;;27.58;;
75926;SDS011;64605;48.296;16.416;2023-02-15T11:53:00;43.22;;;28.17;;
75926;SDS011;64605;48.296;16.416;2023-02-15T11:55:32;42.97;;;28.75;;
75926;SDS011;64605;48.296;16.416;2023-02-15T12:00:52;42.33;;;28.92;;
75926;SDS011;64605;48.296;16.416;2023-02-15T12:06:17;45.58;;;29.25;;
75926;SDS011;64605;48.296;16.416;2023-02-15T12:11:33;42.55;;;28.52;;
75926;SDS011;64605;48.296;16.416;2023-02-15T12:14:05;40.30;;;28.40;;
75926;SDS011;64605;48.296;16.416;2023-02-15T12:16:53;43.58;;;28.20;;
75926;SDS011;64605;48.296;16.416;2023-02-15T12:22:00;41.90;;;27.30;;
75926;SDS011;64605;48.296;16.416;2023-02-15T12:24:29;41.58;;;27.63;;
75926;SDS011;64605;48.296;16.416;2023-02-15T12:27:01;39.92;;;26.90;;
75926;SDS011;64605;48.296;16.416;2023-02-15T12:29:29;43.63;;;28.50;;
75926;SDS011;64605;48.296;16.416;2023-02-15T12:31:59;41.50;;;26.92;;
75926;SDS011;64605;48.296;16.416;2023-02-15T12:34:26;41.17;;;27.92;;
75926;SDS011;64605;48.296;16.416;2023-02-15T12:37:01;37.83;;;26.67;;
75926;SDS011;64605;48.296;16.416;2023-02-15T12:39:33;40.78;;;28.15;;
75926;SDS011;64605;48.296;16.416;2023-02-15T12:42:00;39.60;;;27.33;;
75926;SDS011;64605;48.296;16.416;2023-02-15T12:44:30;42.30;;;27.35;;
75926;SDS011;64605;48.296;16.416;2023-02-15T12:46:58;42.72;;;28.90;;
75926;SDS011;64605;48.296;16.416;2023-02-15T12:49:26;38.65;;;27.10;;
75926;SDS011;64605;48.296;16.416;2023-02-15T12:51:54;43.03;;;28.08;;
75926;SDS011;64605;48.296;16.416;2023-02-15T12:56:47;37.60;;;26.05;;
75926;SDS011;64605;48.296;16.416;2023-02-15T12:59:13;40.50;;;26.00;;
75926;SDS011;64605;48.296;16.416;2023-02-15T13:01:40;45.40;;;29.13;;
75926;SDS011;64605;48.296;16.416;2023-02-15T13:06:53;37.78;;;25.60;;
75926;SDS011;64605;48.296;16.416;2023-02-15T13:09:40;42.72;;;25.90;;
75926;SDS011;64605;48.296;16.416;2023-02-15T13:14:49;46.63;;;29.42;;
75926;SDS011;64605;48.296;16.416;2023-02-15T13:17:41;43.08;;;28.52;;
75926;SDS011;64605;48.296;16.416;2023-02-15T13:20:16;47.33;;;29.42;;
75926;SDS011;64605;48.296;16.416;2023-02-15T13:22:50;45.22;;;28.83;;
75926;SDS011;64605;48.296;16.416;2023-02-15T13:25:21;41.90;;;28.95;;
75926;SDS011;64605;48.296;16.416;2023-02-15T13:27:51;44.20;;;29.63;;
75926;SDS011;64605;48.296;16.416;2023-02-15T13:30:30;43.97;;;29.40;;
75926;SDS011;64605;48.296;16.416;2023-02-15T13:33:03;44.97;;;28.88;;
75926;SDS011;64605;48.296;16.416;2023-02-15T13:35:41;42.90;;;27.55;;
75926;SDS011;64605;48.296;16.416;2023-02-15T13:38:29;45.30;;;28.42;;
75926;SDS011;64605;48.296;16.416;2023-02-15T13:41:19;47.15;;;28.77;;
75926;SDS011;64605;48.296;16.416;2023-02-15T13:46:33;45.95;;;28.60;;
75926;SDS011;64605;48.296;16.416;2023-02-15T13:52:18;44.78;;;29.60;;
75926;SDS011;64605;48.296;16.416;2023-02-15T13:54:48;51.78;;;29.35;;
75926;SDS011;64605;48.296;16.416;2023-02-15T14:11:15;42.40;;;27.63;;
75926;SDS011;64605;48.296;16.416;2023-02-15T14:16:26;45.42;;;28.45;;
75926;SDS011;64605;48.296;16.416;2023-02-15T14:19:16;45.70;;;29.05;;
75926;SDS011;64605;48.296;16.416;2023-02-15T14:22:14;47.60;;;29.95;;
75926;SDS011;64605;48.296;16.416;2023-02-15T14:25:05;44.92;;;27.02;;
75926;SDS011;64605;48.296;16.416;2023-02-15T14:32:48;49.42;;;30.10;;
75926;SDS011;64605;48.296;16.416;2023-02-15T14:35:19;45.60;;;28.67;;
75926;SDS011;64605;48.296;16.416;2023-02-15T14:37:57;42.13;;;26.88;;
75926;SDS011;64605;48.296;16.416;2023-02-15T14:40:51;42.78;;;26.60;;
75926;SDS011;64605;48.296;16.416;2023-02-15T14:48:53;44.08;;;26.67;;
75926;SDS011;64605;48.296;16.416;2023-02-15T14:54:07;46.42;;;29.13;;
75926;SDS011;64605;48.296;16.416;2023-02-15T14:56:33;47.65;;;29.60;;
75926;SDS011;64605;48.296;16.416;2023-02-15T15:01:41;53.22;;;31.27;;
75926;SDS011;64605;48.296;16.416;2023-02-15T15:04:27;50.72;;;30.25;;
75926;SDS011;64605;48.296;16.416;2023-02-15T15:06:57;53.88;;;31.00;;
75926;SDS011;64605;48.296;16.416;2023-02-15T15:09:37;48.80;;;30.42;;
75926;SDS011;64605;48.296;16.416;2023-02-15T15:14:41;47.45;;;29.88;;
75926;SDS011;64605;48.296;16.416;2023-02-15T15:20:00;51.83;;;29.83;;
75926;SDS011;64605;48.296;16.416;2023-02-15T15:22:29;51.50;;;31.92;;
75926;SDS011;64605;48.296;16.416;2023-02-15T15:24:58;50.90;;;30.80;;
75926;SDS011;64605;48.296;16.416;2023-02-15T15:32:47;53.47;;;31.40;;
75926;SDS011;64605;48.296;16.416;2023-02-15T15:40:52;57.22;;;32.67;;
75926;SDS011;64605;48.296;16.416;2023-02-15T15:49:27;51.72;;;30.58;;
75926;SDS011;64605;48.296;16.416;2023-02-15T15:51:56;53.25;;;32.17;;
75926;SDS011;64605;48.296;16.416;2023-02-15T15:54:26;55.95;;;31.52;;
75926;SDS011;64605;48.296;16.416;2023-02-15T15:56:53;57.50;;;32.10;;
75926;SDS011;64605;48.296;16.416;2023-02-15T15:59:26;51.65;;;32.65;;
75926;SDS011;64605;48.296;16.416;2023-02-15T16:01:54;57.70;;;32.22;;
75926;SDS011;64605;48.296;16.416;2023-02-15T16:04:25;55.72;;;31.83;;
75926;SDS011;64605;48.296;16.416;2023-02-15T16:06:56;48.85;;;30.30;;
75926;SDS011;64605;48.296;16.416;2023-02-15T16:09:24;55.55;;;31.95;;
75926;SDS011;64605;48.296;16.416;2023-02-15T16:11:58;54.72;;;32.67;;
75926;SDS011;64605;48.296;16.416;2023-02-15T16:14:30;55.50;;;32.97;;
75926;SDS011;64605;48.296;16.416;2023-02-15T16:17:00;53.08;;;32.40;;
75926;SDS011;64605;48.296;16.416;2023-02-15T16:19:30;59.03;;;32.47;;
75926;SDS011;64605;48.296;16.416;2023-02-15T16:21:59;62.33;;;33.20;;
75926;SDS011;64605;48.296;16.416;2023-02-15T16:24:36;54.95;;;31.02;;
75926;SDS011;64605;48.296;16.416;2023-02-15T16:27:17;61.45;;;33.58;;
75926;SDS011;64605;48.296;16.416;2023-02-15T16:29:57;63.20;;;34.40;;
75926;SDS011;64605;48.296;16.416;2023-02-15T16:32:23;59.55;;;34.30;;
75926;SDS011;64605;48.296;16.416;2023-02-15T16:34:54;53.28;;;32.30;;
75926;SDS011;64605;48.296;16.416;2023-02-15T16:37:25;58.95;;;32.72;;
75926;SDS011;64605;48.296;16.416;2023-02-15T16:39:53;60.00;;;34.00;;
75926;SDS011;64605;48.296;16.416;2023-02-15T16:42:20;61.22;;;33.95;;
75926;SDS011;64605;48.296;16.416;2023-02-15T16:45:28;59.20;;;34.22;;
75926;SDS011;64605;48.296;16.416;2023-02-15T16:47:41;58.05;;;31.85;;
75926;SDS011;64605;48.296;16.416;2023-02-15T16:50:21;59.90;;;34.05;;
75926;SDS011;64605;48.296;16.416;2023-02-15T16:52:53;58.33;;;32.45;;
75926;SDS011;64605;48.296;16.416;2023-02-15T16:55:22;57.10;;;32.83;;
75926;SDS011;64605;48.296;16.416;2023-02-15T16:57:50;57.22;;;31.88;;
75926;SDS011;64605;48.296;16.416;2023-02-15T17:00:24;61.08;;;32.33;;
75926;SDS011;64605;48.296;16.416;2023-02-15T17:05:45;59.90;;;34.20;;
75926;SDS011;64605;48.296;16.416;2023-02-15T17:08:15;56.10;;;31.10;;
75926;SDS011;64605;48.296;16.416;2023-02-15T17:11:00;60.40;;;33.88;;
75926;SDS011;64605;48.296;16.416;2023-02-15T17:13:29;60.55;;;33.55;;
75926;SDS011;64605;48.296;16.416;2023-02-15T17:18:24;74.05;;;39.65;;